Gent, Belgium

7:23 AM CEST on August 28, 2016 (GMT +0200)
Dendermondsesteenweg | | Change Station

Elev 29 ft 51.06 °N, 3.74 °E | Updated 2 minutes ago

Clear
Clear
76.5 °F
Feels Like 78 °F
N
1.2
Wind Variable Wind from SE
Gusts 5.0 mph

Today
High -- | Low -- °F
--% Chance of Precip.
Yesterday
High -- | Low -- °F
Precip. -- in
Pressure 29.89 in
Visibility 6.2 miles
Clouds
Heat Index 78 °F
Dew Point 67 °F
Humidity 71%
Rainfall 0.00 in
Snow Depth Not available.
6:52 AM 8:38 PM
Waning Crescent, 18% visible
METAR EBCV 280455Z AUTO 22006KT 9999 NCD 20/17 Q1012 BLU
Pressure 29.89 in
Visibility 6.2 miles
Clouds
Heat Index 78 °F
Dew Point 67 °F
Humidity 71%
Rainfall 0.00 in
Snow Depth Not available.
6:52 AM 8:38 PM
Waning Crescent, 18% visible
METAR EBCV 280455Z AUTO 22006KT 9999 NCD 20/17 Q1012 BLU

10-Day Weather Forecast

×

Almanac

Astronomy

Aug. 28, 2016 Rise Set
Actual Time
Civil Twilight
Nautical Twilight
Astronomical Twilight
Moon
Length of Visible Light
Length of Day
Tomorrow will be .
, % of the Moon is Illuminated

Today's Extremes

Country Highs Country Lows

Community

WunderPhotos

Upload Photos

1,935,531 photos uploaded!

WunderBlog® & News

Nearby

Air Quality

  Air Quality AQ Index Pollutant
Not available.

Snow Depth

Station Depth Elevation

Earthquake Activity

City Distance Mag. Time & Date
Minimum magnitude displayed is 2.5.

Coastal Water Temperatures

Place Temperature

Stations

Nearby Weather Stations

Station Location Temp. Windchill Dew Point Humidity Wind Precip. Elev Updated Type